Alpine, AL (35014)

3:28 PM CDT on August 27, 2016 (GMT -0500)
Sycamore,Alabama | | Change Station

Elev 552 ft 33.26 °N, 86.21 °W | Updated 8 seconds ago

Partly Cloudy
Partly Cloudy
93.6 °F
Feels Like 96 °F
N
6.0
Wind Variable Wind from SE
Gusts 11.4 mph

Today
High -- | Low -- °F
--% Chance of Precip.
Yesterday
High -- | Low -- °F
Precip. -- in
Pressure 30.01 in
Visibility 10.0 miles
Clouds Few 6500 ft
Heat Index 96 °F
Dew Point 65 °F
Humidity 39%
Rainfall 0.00 in
Snow Depth Not available.
6:15 AM 7:15 PM
Waning Crescent, 22% visible
METAR KANB 271953Z AUTO 11009KT 10SM FEW065 34/18 A3004 RMK AO2 SLP160 T03440183
Pressure 30.01 in
Visibility 10.0 miles
Clouds Few 6500 ft
Heat Index 96 °F
Dew Point 65 °F
Humidity 39%
Rainfall 0.00 in
Snow Depth Not available.
6:15 AM 7:15 PM
Waning Crescent, 22% visible
METAR KANB 271953Z AUTO 11009KT 10SM FEW065 34/18 A3004 RMK AO2 SLP160 T03440183

10-Day Weather Forecast

Almanac

Astronomy

Aug. 27, 2016 Rise Set
Actual Time
Civil Twilight
Nautical Twilight
Astronomical Twilight
Moon
Length of Visible Light
Length of Day
Tomorrow will be .
, % of the Moon is Illuminated

Today's Extremes

State Highs State Lows

Community

WunderPhotos

Upload Photos

1,935,434 photos uploaded!

WunderBlog® & News

Nearby

Air Quality

  Air Quality AQ Index Pollutant
Not available.

Snow Depth

Station Depth Elevation

Earthquake Activity

City Distance Mag. Time & Date
Minimum magnitude displayed is 2.5.

Coastal Water Temperatures

Place Temperature

Stations

Nearby Weather Stations

Station Location Temp. Windchill Dew Point Humidity Wind Precip. Elev Updated Type
                   

Watches & Warnings

There are currently no watches in effect.